createdAt,value
2023-05-06T00:00:58.760Z,21.00
2023-05-06T00:04:41.083Z,14.25
2023-05-06T00:08:23.188Z,20.85
2023-05-06T00:12:05.601Z,17.05
2023-05-06T00:15:47.442Z,12.55
2023-05-06T00:19:29.236Z,17.15
2023-05-06T00:23:11.106Z,22.27
2023-05-06T00:26:53.727Z,19.80
2023-05-06T00:30:35.704Z,22.80
2023-05-06T00:34:17.511Z,17.17
2023-05-06T00:38:11.858Z,16.98
2023-05-06T00:41:53.694Z,14.88
2023-05-06T00:45:35.803Z,17.52
2023-05-06T00:49:17.709Z,15.63
2023-05-06T00:53:01.555Z,14.30
2023-05-06T00:56:43.472Z,17.30
2023-05-06T01:00:25.683Z,16.17
2023-05-06T01:04:08.752Z,12.95
2023-05-06T01:07:56.728Z,16.48
2023-05-06T01:11:44.242Z,16.05
2023-05-06T01:15:46.317Z,19.35
2023-05-06T01:19:50.961Z,16.75
2023-05-06T01:23:57.794Z,19.85
2023-05-06T01:27:39.777Z,16.33
2023-05-06T01:31:45.660Z,17.75
2023-05-06T01:35:32.892Z,24.07
2023-05-06T01:39:24.567Z,19.88
2023-05-06T01:43:07.730Z,24.17
2023-05-06T01:46:51.576Z,18.95
2023-05-06T01:50:33.867Z,24.90
2023-05-06T01:54:15.874Z,20.42
2023-05-06T01:57:58.066Z,16.90
2023-05-06T02:01:39.896Z,18.95
2023-05-06T02:05:21.746Z,16.48
2023-05-06T02:09:03.730Z,20.98
2023-05-06T02:12:45.562Z,20.50
2023-05-06T02:16:30.536Z,14.23
2023-05-06T02:20:12.481Z,17.60
2023-05-06T02:23:54.391Z,14.38
2023-05-06T02:27:36.229Z,17.92
2023-05-06T02:31:18.321Z,15.73
2023-05-06T02:35:00.229Z,13.55
2023-05-06T02:38:42.083Z,15.48
2023-05-06T02:42:23.962Z,19.63
2023-05-06T02:46:05.909Z,19.50
2023-05-06T02:49:47.842Z,15.02
2023-05-06T02:53:29.755Z,14.98
2023-05-06T02:57:11.598Z,12.63
2023-05-06T03:00:53.537Z,17.95
2023-05-06T03:04:35.460Z,11.65
2023-05-06T03:08:17.316Z,9.90
2023-05-06T03:11:59.153Z,15.48
2023-05-06T03:15:41.613Z,10.57
2023-05-06T03:19:23.444Z,14.98
2023-05-06T03:23:05.419Z,18.02
2023-05-06T03:26:47.340Z,15.00
2023-05-06T03:30:29.183Z,18.60
2023-05-06T03:34:10.952Z,15.57
2023-05-06T03:37:52.833Z,16.75
2023-05-06T03:41:34.644Z,20.05
2023-05-06T03:45:16.456Z,13.20
2023-05-06T03:49:00.551Z,18.80
2023-05-06T03:52:42.641Z,14.68
2023-05-06T03:56:24.555Z,19.20
2023-05-06T04:00:06.920Z,21.95
2023-05-06T04:03:48.871Z,21.48
2023-05-06T04:07:31.167Z,13.85
2023-05-06T04:11:13.118Z,17.80
2023-05-06T04:14:54.933Z,15.00
2023-05-06T04:18:37.547Z,17.70
2023-05-06T04:22:19.766Z,14.63
2023-05-06T04:26:02.102Z,11.63
2023-05-06T04:29:43.912Z,13.40
2023-05-06T04:33:25.730Z,8.60
2023-05-06T04:37:07.561Z,6.18
2023-05-06T04:40:50.183Z,10.00
2023-05-06T04:44:34.095Z,8.77
2023-05-06T04:48:18.431Z,9.07
2023-05-06T04:52:00.259Z,6.97
2023-05-06T04:55:42.229Z,5.43
2023-05-06T04:59:24.162Z,7.10
2023-05-06T05:03:06.072Z,5.88
2023-05-06T05:06:48.030Z,8.77
2023-05-06T05:10:29.829Z,7.15
2023-05-06T05:14:11.655Z,9.02
2023-05-06T05:17:53.526Z,12.20
2023-05-06T05:21:35.398Z,11.27
2023-05-06T05:25:17.331Z,12.63
2023-05-06T05:28:59.146Z,12.02
2023-05-06T05:32:40.956Z,15.45
2023-05-06T05:36:23.427Z,7.35
2023-05-06T05:40:06.090Z,9.57
2023-05-06T05:43:47.913Z,12.13
2023-05-06T05:47:29.733Z,10.82
2023-05-06T05:51:11.600Z,8.13
2023-05-06T05:54:53.664Z,7.80
2023-05-06T05:58:35.519Z,8.23
2023-05-06T06:02:17.472Z,10.48
2023-05-06T06:05:59.552Z,8.30
2023-05-06T06:09:41.894Z,6.78
2023-05-06T06:13:24.818Z,5.88
2023-05-06T06:17:07.838Z,9.73
2023-05-06T06:20:51.714Z,12.65
2023-05-06T06:24:35.078Z,9.68
2023-05-06T06:28:16.925Z,6.80
2023-05-06T06:31:59.589Z,9.10
2023-05-06T06:35:41.474Z,7.95
2023-05-06T06:39:23.261Z,4.88
2023-05-06T06:43:05.147Z,6.55
2023-05-06T06:46:47.118Z,8.10
2023-05-06T06:50:29.001Z,3.28
2023-05-06T06:54:10.849Z,7.93
2023-05-06T06:57:52.691Z,7.30
2023-05-06T07:01:34.626Z,3.20
2023-05-06T07:05:16.557Z,5.70
2023-05-06T07:08:58.358Z,6.00
2023-05-06T07:12:40.328Z,4.80
2023-05-06T07:16:22.161Z,5.25
2023-05-06T07:20:04.418Z,7.82
2023-05-06T07:23:46.303Z,6.18
2023-05-06T07:27:30.389Z,6.38
2023-05-06T07:31:12.247Z,3.25
2023-05-06T07:34:54.108Z,3.05
2023-05-06T07:38:35.967Z,3.42
2023-05-06T07:42:17.861Z,4.30
2023-05-06T07:46:03.006Z,1.90
2023-05-06T07:49:44.955Z,6.75
2023-05-06T07:53:26.972Z,2.15
2023-05-06T07:57:09.393Z,1.17
2023-05-06T08:00:51.927Z,2.45
2023-05-06T08:04:33.846Z,1.65
2023-05-06T08:08:15.670Z,1.02
2023-05-06T08:11:58.473Z,2.22
2023-05-06T08:15:40.634Z,0.50
2023-05-06T08:19:22.951Z,1.05
2023-05-06T08:23:04.821Z,0.70
2023-05-06T08:26:46.823Z,1.45
2023-05-06T08:30:28.783Z,1.73
2023-05-06T08:34:10.649Z,2.03
2023-05-06T08:37:52.461Z,0.90
2023-05-06T08:41:38.020Z,1.85
2023-05-06T08:45:20.224Z,0.70
2023-05-06T08:49:02.550Z,0.57
2023-05-06T08:52:45.011Z,2.75
2023-05-06T08:56:30.431Z,1.05
2023-05-06T09:00:13.059Z,0.88
2023-05-06T09:03:57.095Z,0.68
2023-05-06T09:07:38.896Z,0.17
2023-05-06T09:11:26.080Z,0.90
2023-05-06T09:15:10.011Z,0.65
2023-05-06T09:18:51.957Z,0.43
2023-05-06T09:22:33.773Z,0.43
2023-05-06T09:26:16.437Z,0.25
2023-05-06T09:30:09.416Z,0.17
2023-05-06T09:33:51.743Z,1.33
2023-05-06T09:37:33.588Z,0.57
2023-05-06T09:41:16.730Z,0.43
2023-05-06T09:45:01.910Z,0.90
2023-05-06T09:48:46.638Z,1.17
2023-05-06T09:52:29.809Z,0.25
2023-05-06T09:56:12.396Z,0.55
2023-05-06T09:59:55.615Z,0.32
2023-05-06T10:03:39.743Z,0.32
2023-05-06T10:07:25.718Z,1.83
2023-05-06T10:11:07.837Z,1.10
2023-05-06T10:14:49.698Z,0.25
2023-05-06T10:18:34.312Z,1.17
2023-05-06T10:22:49.712Z,0.52
2023-05-06T10:26:36.256Z,0.52
2023-05-06T10:30:20.689Z,1.88
2023-05-06T10:34:07.726Z,1.55
2023-05-06T10:37:50.924Z,0.95
2023-05-06T10:41:37.153Z,7.10
2023-05-06T10:45:19.011Z,2.13
2023-05-06T10:49:16.249Z,1.88
2023-05-06T10:52:59.418Z,0.25
2023-05-06T10:57:10.780Z,0.20
2023-05-06T11:00:55.827Z,1.95
2023-05-06T11:04:38.735Z,0.93
2023-05-06T11:08:27.222Z,1.40
2023-05-06T11:12:09.024Z,0.32
2023-05-06T11:15:52.137Z,0.25
2023-05-06T11:19:35.880Z,0.20
2023-05-06T11:23:19.337Z,0.70
2023-05-06T11:27:01.278Z,4.53
2023-05-06T11:30:44.607Z,0.85
2023-05-06T11:34:33.087Z,1.10
2023-05-06T11:38:15.259Z,0.30
2023-05-06T11:42:07.907Z,0.22
2023-05-06T11:45:51.180Z,0.40
2023-05-06T11:49:41.678Z,0.10
2023-05-06T11:53:24.494Z,0.32
2023-05-06T11:57:06.817Z,0.82
2023-05-06T12:00:52.420Z,1.50
2023-05-06T12:04:48.564Z,1.67
2023-05-06T12:08:33.223Z,1.30
2023-05-06T12:12:22.589Z,0.22
2023-05-06T12:16:06.361Z,0.68
2023-05-06T12:19:48.308Z,1.73
2023-05-06T12:23:30.248Z,2.50
2023-05-06T12:27:12.185Z,4.07
2023-05-06T12:30:54.027Z,2.75
2023-05-06T12:34:40.143Z,2.47
2023-05-06T12:38:21.999Z,1.60
2023-05-06T12:42:04.220Z,0.90
2023-05-06T12:46:03.916Z,2.42
2023-05-06T12:50:01.034Z,3.30
2023-05-06T12:53:42.971Z,3.70
2023-05-06T12:57:24.906Z,2.55
2023-05-06T13:01:09.923Z,2.33
2023-05-06T13:04:51.798Z,5.03
2023-05-06T13:08:34.121Z,2.17
2023-05-06T13:12:16.053Z,2.63
2023-05-06T13:15:57.880Z,2.45
2023-05-06T13:19:39.917Z,4.07
2023-05-06T13:23:21.867Z,1.40
2023-05-06T13:27:03.786Z,2.38
2023-05-06T13:30:45.638Z,1.35
2023-05-06T13:34:27.995Z,2.78
2023-05-06T13:38:09.827Z,1.75
2023-05-06T13:41:52.328Z,1.25
2023-05-06T13:45:34.154Z,2.55
2023-05-06T13:49:16.005Z,2.40
2023-05-06T13:52:57.807Z,3.72
2023-05-06T13:56:39.625Z,0.95
2023-05-06T14:00:21.663Z,0.80
2023-05-06T14:04:03.639Z,2.13
2023-05-06T14:07:45.520Z,1.73
2023-05-06T14:11:27.304Z,2.10
2023-05-06T14:15:10.601Z,4.43
2023-05-06T14:18:52.554Z,3.83
2023-05-06T14:22:34.468Z,4.20
2023-05-06T14:26:16.309Z,2.00
2023-05-06T14:29:58.122Z,4.53
2023-05-06T14:33:39.951Z,4.70
2023-05-06T14:37:21.840Z,3.30
2023-05-06T14:41:03.661Z,3.83
2023-05-06T14:44:48.609Z,5.47
2023-05-06T14:48:30.455Z,2.20
2023-05-06T14:52:12.294Z,2.35
2023-05-06T14:55:54.102Z,2.10
2023-05-06T14:59:36.332Z,2.65
2023-05-06T15:03:18.150Z,3.80
2023-05-06T15:07:00.237Z,1.83
2023-05-06T15:10:42.210Z,3.20
2023-05-06T15:14:24.103Z,3.08
2023-05-06T15:18:05.953Z,2.58
2023-05-06T15:21:48.628Z,2.97
2023-05-06T15:25:35.627Z,3.50
2023-05-06T15:29:18.194Z,1.40
2023-05-06T15:33:01.798Z,1.60
2023-05-06T15:36:44.444Z,3.05
2023-05-06T15:40:27.134Z,4.40
2023-05-06T15:44:11.003Z,1.95
2023-05-06T15:47:54.189Z,4.07
2023-05-06T15:51:36.102Z,3.53
2023-05-06T15:55:19.063Z,2.40
2023-05-06T15:59:01.562Z,2.28
2023-05-06T16:02:43.459Z,2.00
2023-05-06T16:06:25.906Z,1.88
2023-05-06T16:10:08.350Z,2.47
2023-05-06T16:13:50.288Z,2.03
2023-05-06T16:17:33.081Z,1.95
2023-05-06T16:21:14.923Z,4.68
2023-05-06T16:24:57.527Z,6.15
2023-05-06T16:28:40.120Z,1.92
2023-05-06T16:32:22.282Z,3.92
2023-05-06T16:36:04.451Z,2.60
2023-05-06T16:39:46.251Z,2.13
2023-05-06T16:43:28.335Z,2.08
2023-05-06T16:47:10.635Z,5.18
2023-05-06T16:50:52.474Z,2.22
2023-05-06T16:54:34.278Z,3.65
2023-05-06T16:58:16.385Z,2.63
2023-05-06T17:01:58.275Z,3.33
2023-05-06T17:05:40.102Z,4.25
2023-05-06T17:09:24.725Z,2.45
2023-05-06T17:13:06.697Z,3.55
2023-05-06T17:16:48.974Z,4.10
2023-05-06T17:20:31.293Z,4.43
2023-05-06T17:24:13.138Z,4.28
2023-05-06T17:27:55.258Z,3.78
2023-05-06T17:31:37.189Z,3.72
2023-05-06T17:35:20.290Z,4.47
2023-05-06T17:39:03.662Z,4.93
2023-05-06T17:42:45.540Z,4.68
2023-05-06T17:46:27.478Z,4.75
2023-05-06T17:50:10.202Z,3.05
2023-05-06T17:53:52.047Z,3.63
2023-05-06T17:57:34.697Z,4.70
2023-05-06T18:01:16.557Z,4.35
2023-05-06T18:04:58.395Z,5.90
2023-05-06T18:08:40.187Z,4.22
2023-05-06T18:12:22.203Z,4.20
2023-05-06T18:16:04.789Z,6.15
2023-05-06T18:19:46.675Z,5.53
2023-05-06T18:23:29.886Z,4.07
2023-05-06T18:27:12.809Z,6.82
2023-05-06T18:30:54.654Z,5.63
2023-05-06T18:34:36.442Z,5.40
2023-05-06T18:38:18.712Z,5.00
2023-05-06T18:42:00.711Z,7.25
2023-05-06T18:45:43.017Z,5.95
2023-05-06T18:49:27.145Z,5.43
2023-05-06T18:53:08.959Z,5.35
2023-05-06T18:56:54.878Z,5.82
2023-05-06T19:00:36.995Z,3.73
2023-05-06T19:04:19.393Z,5.50
2023-05-06T19:08:01.306Z,4.85
2023-05-06T19:11:43.372Z,5.90
2023-05-06T19:15:25.311Z,7.95
2023-05-06T19:19:07.402Z,6.05
2023-05-06T19:22:49.206Z,4.25
2023-05-06T19:26:31.141Z,6.88
2023-05-06T19:30:13.100Z,7.55
2023-05-06T19:33:55.069Z,8.02
2023-05-06T19:37:39.253Z,7.82
2023-05-06T19:41:21.148Z,8.43
2023-05-06T19:45:09.733Z,9.23
2023-05-06T19:48:51.700Z,7.65
2023-05-06T19:52:34.637Z,8.20
2023-05-06T19:56:17.250Z,8.48
2023-05-06T19:59:59.110Z,10.73
2023-05-06T20:03:41.085Z,9.65
2023-05-06T20:07:23.292Z,10.18
2023-05-06T20:11:05.958Z,10.55
2023-05-06T20:14:47.783Z,15.35
2023-05-06T20:18:31.475Z,12.40
2023-05-06T20:22:13.422Z,10.27
2023-05-06T20:25:55.753Z,15.02
2023-05-06T20:29:37.566Z,13.55
2023-05-06T20:33:19.556Z,13.48
2023-05-06T20:37:01.599Z,15.30
2023-05-06T20:40:43.464Z,14.82
2023-05-06T20:44:25.652Z,14.55
2023-05-06T20:48:07.859Z,18.20
2023-05-06T20:51:50.260Z,21.92
2023-05-06T20:55:33.812Z,17.95
2023-05-06T20:59:15.730Z,17.63
2023-05-06T21:02:57.699Z,16.63
2023-05-06T21:06:39.582Z,19.90
2023-05-06T21:10:21.430Z,18.77
2023-05-06T21:14:03.314Z,17.75
2023-05-06T21:17:45.285Z,18.48
2023-05-06T21:21:30.599Z,18.83
2023-05-06T21:25:13.387Z,19.77
2023-05-06T21:28:55.329Z,18.27
2023-05-06T21:32:37.372Z,18.88
2023-05-06T21:36:19.176Z,19.33
2023-05-06T21:40:04.338Z,19.52
2023-05-06T21:43:46.134Z,20.30
2023-05-06T21:47:28.052Z,21.13
2023-05-06T21:51:09.868Z,18.67
2023-05-06T21:54:51.695Z,18.77
2023-05-06T21:58:33.529Z,16.08
2023-05-06T22:02:15.576Z,21.15
2023-05-06T22:05:57.397Z,20.20
2023-05-06T22:09:39.247Z,17.80
2023-05-06T22:13:22.811Z,20.38
2023-05-06T22:17:06.897Z,14.40
2023-05-06T22:20:50.741Z,18.35
2023-05-06T22:24:32.573Z,17.13
2023-05-06T22:28:14.434Z,15.00
2023-05-06T22:31:56.624Z,18.13
2023-05-06T22:35:38.540Z,16.83
2023-05-06T22:39:20.552Z,24.15
2023-05-06T22:43:02.372Z,14.32
2023-05-06T22:46:44.174Z,13.82
2023-05-06T22:50:25.986Z,19.67
2023-05-06T22:54:07.827Z,12.07
2023-05-06T22:57:50.138Z,14.55
2023-05-06T23:01:32.756Z,17.38
2023-05-06T23:05:14.685Z,15.98
2023-05-06T23:08:56.607Z,19.05
2023-05-06T23:12:38.473Z,13.88
2023-05-06T23:16:21.090Z,16.45
2023-05-06T23:20:03.849Z,16.02
2023-05-06T23:23:45.668Z,14.88
2023-05-06T23:27:27.488Z,13.15
2023-05-06T23:31:09.396Z,12.10
2023-05-06T23:34:52.540Z,15.73
2023-05-06T23:38:35.748Z,16.13
2023-05-06T23:42:17.611Z,17.48
2023-05-06T23:45:59.547Z,15.50
2023-05-06T23:49:41.493Z,13.10
2023-05-06T23:53:23.339Z,14.75
2023-05-06T23:57:05.414Z,17.08
